This is the latest recevied weather packets stored in our database for station/object GBTWP-2. If no packets are shown the sender has not sent any weather packets the latest 10 day(s).
| Time | Temp. | Humidity | Pressure | Rain* | Wind** | Luminosity | Snow |
|---|---|---|---|---|---|---|---|
| 1777961101 | 15° C | 82% | 1002.6 hPa | 0 mm | - | 0 W/m² | - |
| 1777960502 | 14.44° C | 85% | 1002.7 hPa | 1.02 mm | - | 0 W/m² | - |
| 1777960201 | 14.44° C | 85% | 1003 hPa | 1.02 mm | - | 0 W/m² | - |
| 1777959902 | 15° C | 83% | 1002.9 hPa | 0 mm | - | 0 W/m² | - |
| 1777959602 | 15.56° C | 80% | 1003.1 hPa | 0 mm | - | 0 W/m² | - |
| 1777959302 | 16.67° C | 76% | 1003.1 hPa | 0 mm | - | 0 W/m² | - |
| 1777959001 | 17.78° C | 67% | 1003.1 hPa | 0 mm | - | 0 W/m² | - |
| 1777958702 | 17.78° C | 65% | 1002.7 hPa | 0 mm | - | 0 W/m² | - |
| 1777958101 | 18.33° C | 64% | 1002.5 hPa | 0 mm | - | 0 W/m² | - |
| 1777957802 | 18.33° C | 64% | 1002.5 hPa | 0 mm | - | 0 W/m² | - |
| 1777957202 | 18.89° C | 64% | 1002.4 hPa | 0 mm | - | 0 W/m² | - |
| 1777956902 | 18.89° C | 63% | 1002.4 hPa | 0 mm | - | 0 W/m² | - |
| 1777956001 | 19.44° C | 60% | 1001.6 hPa | 0 mm | - | 0 W/m² | - |
| 1777955702 | 19.44° C | 59% | 1001.6 hPa | 0 mm | - | 0 W/m² | - |
| 1777955101 | 20° C | 59% | 1001.7 hPa | 0 mm | - | 0 W/m² | - |
| 1777954802 | 19.44° C | 59% | 1001.5 hPa | 0 mm | - | 0 W/m² | - |
| 1777954502 | 19.44° C | 62% | 1001.5 hPa | 0 mm | - | 0 W/m² | - |
| 1777954202 | 19.44° C | 61% | 1001.5 hPa | 0 mm | - | 0 W/m² | - |
| 1777953902 | 19.44° C | 62% | 1001.5 hPa | 0 mm | - | 0 W/m² | - |
| 1777953302 | 19.44° C | 62% | 1001.7 hPa | 0 mm | - | 0 W/m² | - |
| 1777952102 | 19.44° C | 63% | 1001.7 hPa | 0 mm | - | 0 W/m² | - |
| 1777951501 | 18.89° C | 63% | 1001.4 hPa | 0 mm | - | 0 W/m² | - |
| 1777951202 | 18.89° C | 64% | 1001.5 hPa | 0 mm | - | 0 W/m² | - |
| 1777950901 | 19.44° C | 63% | 1001.5 hPa | 0 mm | - | 0 W/m² | - |
| 1777950602 | 19.44° C | 64% | 1001.4 hPa | 0 mm | - | 0 W/m² | - |
* Rain latest hour (hover to see other rain measurements)
** Current wind speed in m/s (hover to see current wind gust speed)